SSS Odyssey — WCZ2180 — position and weather

sailwx.info

Track history (hours):
 
Tides and Currents Weather Stations Pressure Air Temp Water Temp Dewpoint Dewpoint Depression Visibility Wind Speed Wind Dir Waves Ship Positions

SSS Odyssey

Ship's website: http://www.sssodyssey.org

Owner: Pacific Harbors Council, BSA, TACOMA, WA. More information available from US FCC via Universal Licensing System and Coast Guard Vessel Documentation Center.

Last reported at 2017-May-22 21:24 UTC. Time now 2017-May-23 04:55 UTC.
Position N 47°15' W 122°26'.

Length 30 m; draft 4 m.

Type: Ship. MMSI: 367404790.

Date/timePositionNaut miles runAvg speedWind from/ knotsBaromVisibWave heightAir tempDewpointWater temp
2017-May-22 21:24N 47°15' W 122°26'0 0.0
2017-May-22 20:24N 47°15' W 122°26'0 0.0
2017-May-22 19:51N 47°15' W 122°26'0 0.0
2017-May-22 12:51N 47°15' W 122°26'0 0.0
2017-May-22 08:23N 47°15' W 122°26'0 0.0
2017-May-22 07:59N 47°15' W 122°26'0 0.0
2017-May-22 07:17N 47°15' W 122°26'0 0.0
2017-May-22 06:59N 47°15' W 122°26'0 0.0
2017-May-22 06:29N 47°15' W 122°26'0 0.0
2017-May-22 05:56N 47°15' W 122°26'0 0.0
2017-May-22 05:29N 47°15' W 122°26'0 0.0
2017-May-22 05:00N 47°15' W 122°26'0 0.0
2017-May-22 04:29N 47°15' W 122°26'0 0.0
2017-May-22 03:57N 47°15' W 122°26'0 0.0
2017-May-22 03:29N 47°15' W 122°26'0 0.0
2017-May-22 02:59N 47°15' W 122°26'0 0.0
2017-May-22 02:29N 47°15' W 122°26'0 0.0
2017-May-22 01:59N 47°15' W 122°26'0 0.0
2017-May-22 01:23N 47°15' W 122°26'0 0.1
2017-May-22 00:59N 47°15' W 122°26'0 0.1
2017-May-22 00:29N 47°15' W 122°26'0 0.0
2017-May-21 23:53N 47°15' W 122°26'0 0.0
2017-May-21 23:26N 47°15' W 122°26'0 0.5
2017-May-21 22:59N 47°16' W 122°26'2 3.3
2017-May-21 22:30N 47°17' W 122°26'3 5.9
2017-May-21 22:00N 47°20' W 122°29'2 3.9
2017-May-21 21:30N 47°18' W 122°28'2 3.4
2017-May-21 21:00N 47°17' W 122°26'1 2.1
2017-May-21 20:29N 47°15' W 122°26'0 0.3
2017-May-21 19:58N 47°15' W 122°26'0 0.0
2017-May-21 19:28N 47°15' W 122°26'0 0.0
2017-May-21 19:00N 47°15' W 122°26'2 5.0
2017-May-21 18:30N 47°18' W 122°28'1 1.6
2017-May-21 18:00N 47°18' W 122°27'1 2.1
2017-May-21 17:30N 47°17' W 122°27'1 2.2
2017-May-21 17:00N 47°16' W 122°27'1 2.0
2017-May-21 16:27N 47°15' W 122°26'0 0.0
2017-May-21 15:57N 47°15' W 122°26'0 0.0
2017-May-21 15:27N 47°15' W 122°26'0 0.0
2017-May-21 14:57N 47°15' W 122°26'0 0.0
2017-May-21 14:18N 47°15' W 122°26'0 0.0
2017-May-21 13:30N 47°15' W 122°26'0 0.0
2017-May-21 13:00N 47°15' W 122°26'0 0.0
2017-May-21 12:18N 47°15' W 122°26'0 0.0
2017-May-21 11:57N 47°15' W 122°26'0 0.0
2017-May-21 11:27N 47°15' W 122°26'0 0.0
2017-May-21 11:00N 47°15' W 122°26'0 0.0
2017-May-21 10:27N 47°15' W 122°26'0 0.0
2017-May-21 09:57N 47°15' W 122°26'0 0.0
2017-May-21 09:27N 47°15' W 122°26'0 0.0
2017-May-21 08:57N 47°15' W 122°26'0 0.0
2017-May-21 08:30N 47°15' W 122°26'0 0.0
2017-May-21 07:45N 47°15' W 122°26'0 0.0
2017-May-21 07:30N 47°15' W 122°26'0 0.0
2017-May-21 06:51N 47°15' W 122°26'0 0.0
2017-May-21 06:30N 47°15' W 122°26'0 0.0
2017-May-21 05:57N 47°15' W 122°26'0 0.0
2017-May-21 05:30N 47°15' W 122°26'0 0.0
2017-May-21 05:00N 47°15' W 122°26'0 0.0
2017-May-21 04:30N 47°15' W 122°26'0 0.0
2017-May-21 04:00N 47°15' W 122°26'0 0.0
2017-May-21 03:27N 47°15' W 122°26'0 0.0
2017-May-21 03:00N 47°15' W 122°26'0 0.0
2017-May-21 02:30N 47°15' W 122°26'0 0.0
2017-May-21 02:00N 47°15' W 122°26'0 0.0
2017-May-21 01:21N 47°15' W 122°26'0 0.0
2017-May-21 00:57N 47°15' W 122°26'0 0.0
2017-May-21 00:27N 47°15' W 122°26'0 0.0
2017-May-20 23:59N 47°15' W 122°26'1 1.7
2017-May-20 23:30N 47°16' W 122°26'2 4.4
2017-May-20 23:00N 47°18' W 122°28'1 0.9
2017-May-20 22:20N 47°19' W 122°28'0 1.0
2017-May-20 22:00N 47°18' W 122°28'1 1.7
2017-May-20 21:30N 47°18' W 122°27'2 3.7
2017-May-20 21:00N 47°19' W 122°29'1 1.0
2017-May-20 20:30N 47°19' W 122°29'2 3.8
2017-May-20 20:00N 47°20' W 122°32'4 7.3
2017-May-20 19:30N 47°24' W 122°32'2 4.8
2017-May-20 19:00N 47°26' W 122°32'3 6.9
2017-May-20 18:30N 47°29' W 122°30'4 7.5
2017-May-20 18:00N 47°33' W 122°30'4 7.6
2017-May-20 17:30N 47°37' W 122°30'1 1.5
2017-May-20 17:00N 47°37' W 122°31'0 0.0
2017-May-20 16:24N 47°37' W 122°31'0 0.0
2017-May-20 15:54N 47°37' W 122°31'0 0.0
2017-May-20 15:30N 47°37' W 122°31'0 0.0
2017-May-20 15:00N 47°37' W 122°31'0 0.0
2017-May-20 14:00N 47°37' W 122°31'0 0.0
2017-May-20 13:30N 47°37' W 122°31'0 0.0
2017-May-20 12:54N 47°37' W 122°31'0 0.0
2017-May-20 12:27N 47°37' W 122°31'0 0.0
2017-May-20 12:00N 47°37' W 122°31'0 0.0
2017-May-20 11:30N 47°37' W 122°31'0 0.0
2017-May-20 11:00N 47°37' W 122°31'0 0.0
2017-May-20 10:27N 47°37' W 122°31'0 0.0
2017-May-20 10:00N 47°37' W 122°31'0 0.0
2017-May-20 09:30N 47°37' W 122°31'0 0.0
2017-May-20 09:00N 47°37' W 122°31'0 0.0
2017-May-20 08:27N 47°37' W 122°31'0 0.0
2017-May-20 08:00N 47°37' W 122°31'0 0.0
2017-May-20 07:27N 47°37' W 122°31'0 0.0
2017-May-20 07:00N 47°37' W 122°31'0 0.0
2017-May-20 06:30N 47°37' W 122°31'0 0.0
2017-May-20 05:57N 47°37' W 122°31'0 0.0
2017-May-20 05:30N 47°37' W 122°31'0 0.0
2017-May-20 05:00N 47°37' W 122°31'0 0.0
2017-May-20 04:30N 47°37' W 122°31'0 0.0
2017-May-20 04:00N 47°37' W 122°31'0 0.0
2017-May-20 03:30N 47°37' W 122°31'0 0.0
2017-May-20 03:00N 47°37' W 122°31'0 0.0
2017-May-20 02:30N 47°37' W 122°31'0 0.0
2017-May-20 01:48N 47°37' W 122°31'0 0.0
2017-May-20 01:27N 47°37' W 122°31'0 0.0
2017-May-20 01:00N 47°37' W 122°31'0 0.0
2017-May-20 00:30N 47°37' W 122°31'0 0.0
2017-May-20 00:00N 47°37' W 122°31'0 0.0
2017-May-19 23:30N 47°37' W 122°31'0 0.0
2017-May-19 23:00N 47°37' W 122°31'0 0.0
2017-May-19 22:30N 47°37' W 122°31'0 0.0
2017-May-19 22:00N 47°37' W 122°31'0 0.0
2017-May-19 21:30N 47°37' W 122°31'0 0.0
2017-May-19 21:00N 47°37' W 122°31'0 0.0
2017-May-19 20:30N 47°37' W 122°31'0 0.0
2017-May-19 19:57N 47°37' W 122°31'0 0.0
2017-May-19 19:30N 47°37' W 122°31'0 0.0
2017-May-19 19:00N 47°37' W 122°31'0 0.0
2017-May-19 18:30N 47°37' W 122°31'0 0.0
2017-May-19 17:57N 47°37' W 122°31'0 0.0
2017-May-19 17:30N 47°37' W 122°31'0 0.0
2017-May-19 17:00N 47°37' W 122°31'0 0.0
2017-May-19 16:30N 47°37' W 122°31'0 0.0
2017-May-19 15:57N 47°37' W 122°31'0 0.0
2017-May-19 15:27N 47°37' W 122°31'0 0.0
2017-May-19 15:00N 47°37' W 122°31'0 0.0
2017-May-19 14:00N 47°37' W 122°31'0 0.0
2017-May-19 13:30N 47°37' W 122°31'0 0.0
2017-May-19 13:00N 47°37' W 122°31'0 0.0
2017-May-19 12:30N 47°37' W 122°31'0 0.0
2017-May-19 12:00N 47°37' W 122°31'0 0.0
2017-May-19 11:30N 47°37' W 122°31'0 0.0
2017-May-19 11:00N 47°37' W 122°31'0 0.0
2017-May-19 10:30N 47°37' W 122°31'0 0.0
2017-May-19 10:00N 47°37' W 122°31'0 0.0
2017-May-19 09:30N 47°37' W 122°31'0 0.0
2017-May-19 09:00N 47°37' W 122°31'0 0.0
2017-May-19 08:27N 47°37' W 122°31'0 0.0
2017-May-19 08:00N 47°37' W 122°31'0 0.0
2017-May-19 07:30N 47°37' W 122°31'0 0.0
2017-May-19 07:00N 47°37' W 122°31'0 0.0
2017-May-19 06:30N 47°37' W 122°31'0 0.0
2017-May-19 05:57N 47°37' W 122°31'0 0.0
2017-May-19 05:30N 47°37' W 122°31'0 0.0
2017-May-19 04:57N 47°37' W 122°31'0 0.0
2017-May-19 04:30N 47°37' W 122°31'0 0.0
2017-May-19 04:00N 47°37' W 122°31'0 0.0
2017-May-19 03:30N 47°37' W 122°31'0 0.0
2017-May-19 03:00N 47°37' W 122°31'0 0.0
2017-May-19 02:30N 47°37' W 122°31'0 0.0
2017-May-19 02:00N 47°37' W 122°31'0 0.0
2017-May-19 01:30N 47°37' W 122°31'0 0.0
2017-May-19 01:00N 47°37' W 122°31'0 0.0
2017-May-19 00:30N 47°37' W 122°31'0 0.0
2017-May-19 00:00N 47°37' W 122°31'0 0.0
2017-May-18 23:30N 47°37' W 122°31'0 0.0
2017-May-18 23:00N 47°37' W 122°31'0 0.0
2017-May-18 22:30N 47°37' W 122°31'0 0.0
2017-May-18 22:00N 47°37' W 122°31'0 0.0
2017-May-18 21:30N 47°37' W 122°31'0 0.0
2017-May-18 21:00N 47°37' W 122°31'0 0.0
2017-May-18 20:30N 47°37' W 122°31'0 0.0
2017-May-18 20:00N 47°37' W 122°31'0 0.0
2017-May-18 19:30N 47°37' W 122°31'0 0.0
2017-May-18 19:00N 47°37' W 122°31'0 0.0
2017-May-18 18:30N 47°37' W 122°31'0 0.0
2017-May-18 18:00N 47°37' W 122°31'0 0.0
2017-May-18 17:30N 47°37' W 122°31'0 0.0
2017-May-18 17:00N 47°37' W 122°31'0 0.0
2017-May-18 16:30N 47°37' W 122°31'0 0.0
2017-May-18 15:57N 47°37' W 122°31'0 0.0
2017-May-18 15:30N 47°37' W 122°31'0 0.0
2017-May-18 15:00N 47°37' W 122°31'0 0.0
2017-May-18 14:00N 47°37' W 122°31'0 0.0
2017-May-18 13:30N 47°37' W 122°31'0 0.0
2017-May-18 13:00N 47°37' W 122°31'0 0.0
2017-May-18 12:30N 47°37' W 122°31'0 0.0
2017-May-18 12:00N 47°37' W 122°31'0 0.0
2017-May-18 11:30N 47°37' W 122°31'0 0.0
2017-May-18 11:00N 47°37' W 122°31'0 0.0
2017-May-18 10:30N 47°37' W 122°31'0 0.0
2017-May-18 10:00N 47°37' W 122°31'0 0.0
2017-May-18 09:30N 47°37' W 122°31'0 0.0
2017-May-18 09:00N 47°37' W 122°31'0 0.0
2017-May-18 08:30N 47°37' W 122°31'0 0.0
2017-May-18 08:00N 47°37' W 122°31'0 0.0
2017-May-18 07:27N 47°37' W 122°31'0 0.0
2017-May-18 07:00N 47°37' W 122°31'0 0.0
2017-May-18 06:30N 47°37' W 122°31'0 0.0
2017-May-18 06:00N 47°37' W 122°31'0 0.0
2017-May-18 05:30N 47°37' W 122°31'0 0.0
2017-May-18 05:00N 47°37' W 122°31'0 0.0
2017-May-18 04:30N 47°37' W 122°31'0 0.0
2017-May-18 04:00N 47°37' W 122°31'0 0.0
2017-May-18 03:30N 47°37' W 122°31'0 0.0
2017-May-18 03:00N 47°37' W 122°31'0 0.0
2017-May-18 02:30N 47°37' W 122°31'0 0.0
2017-May-18 02:00N 47°37' W 122°31'0 0.0
2017-May-18 01:30N 47°37' W 122°31'0 0.0
2017-May-18 01:00N 47°37' W 122°31'0 0.0
2017-May-18 00:30N 47°37' W 122°31'0 0.0
2017-May-18 00:00N 47°37' W 122°31'0 0.0
2017-May-17 23:30N 47°37' W 122°31'0 0.0
2017-May-17 23:00N 47°37' W 122°31'0 0.0
2017-May-17 22:30N 47°37' W 122°31'0 0.0
2017-May-17 22:00N 47°37' W 122°31'0 0.0
2017-May-17 21:30N 47°37' W 122°31'0 0.0
2017-May-17 21:00N 47°37' W 122°31'0 0.0
2017-May-17 20:30N 47°37' W 122°31'0 0.0
2017-May-17 20:00N 47°37' W 122°31'0 0.0
2017-May-17 19:30N 47°37' W 122°31'0 0.0
2017-May-17 19:00N 47°37' W 122°31'0 0.0
2017-May-17 18:30N 47°37' W 122°31'0 0.0
2017-May-17 18:00N 47°37' W 122°31'0 0.0
2017-May-17 17:30N 47°37' W 122°31'0 0.0
2017-May-17 17:00N 47°37' W 122°31'0 0.0
2017-May-17 16:30N 47°37' W 122°31'0 0.0
2017-May-17 16:00N 47°37' W 122°31'0 0.0
2017-May-17 15:30N 47°37' W 122°31'0 0.0
2017-May-17 15:00N 47°37' W 122°31'0 0.0
2017-May-17 14:00N 47°37' W 122°31'0 0.0
2017-May-17 13:30N 47°37' W 122°31'0 0.0
2017-May-17 13:00N 47°37' W 122°31'0 0.0
2017-May-17 12:30N 47°37' W 122°31'0 0.0
2017-May-17 12:00N 47°37' W 122°31'0 0.0
2017-May-17 11:30N 47°37' W 122°31'0 0.0
2017-May-17 11:00N 47°37' W 122°31'0 0.0
2017-May-17 10:30N 47°37' W 122°31'0 0.0
2017-May-17 09:57N 47°37' W 122°31'0 0.0
2017-May-17 09:30N 47°37' W 122°31'0 0.0
2017-May-17 09:00N 47°37' W 122°31'0 0.0
2017-May-17 08:30N 47°37' W 122°31'0 0.0
2017-May-17 08:00N 47°37' W 122°31'0 0.0
2017-May-17 07:30N 47°37' W 122°31'0 0.0
2017-May-17 07:00N 47°37' W 122°31'0 0.0
2017-May-17 06:30N 47°37' W 122°31'0 0.0
2017-May-17 06:00N 47°37' W 122°31'0 0.0
2017-May-17 05:30N 47°37' W 122°31'0 0.0
2017-May-17 05:00N 47°37' W 122°31'0 0.0
2017-May-17 04:24N 47°37' W 122°31'0 0.0
2017-May-17 03:54N 47°37' W 122°31'0 0.0
2017-May-17 03:30N 47°37' W 122°31'0 0.0
2017-May-17 03:00N 47°37' W 122°31'0 0.0
2017-May-17 02:30N 47°37' W 122°31'0 0.0
2017-May-17 01:57N 47°37' W 122°31'0 0.0
2017-May-17 01:27N 47°37' W 122°31'0 0.0
2017-May-17 01:00N 47°37' W 122°31'0 0.0
2017-May-17 00:30N 47°37' W 122°31'0 0.0
2017-May-17 00:00N 47°37' W 122°31'0 0.0
2017-May-16 23:30N 47°37' W 122°31'0 0.0
2017-May-16 23:00N 47°37' W 122°31'0 0.0
2017-May-16 22:30N 47°37' W 122°31'0 0.0
2017-May-16 22:00N 47°37' W 122°31'0 0.0
2017-May-16 21:30N 47°37' W 122°31'0 0.0
2017-May-16 21:00N 47°37' W 122°31'0 0.0
2017-May-16 20:30N 47°37' W 122°31'0 0.0
2017-May-16 20:00N 47°37' W 122°31'0 0.0
2017-May-16 19:30N 47°37' W 122°31'0 0.0
2017-May-16 19:00N 47°37' W 122°31'0 0.0
2017-May-16 18:30N 47°37' W 122°31'0 0.0
2017-May-16 17:57N 47°37' W 122°31'0 0.0
2017-May-16 17:24N 47°37' W 122°31'0 0.0
2017-May-16 17:00N 47°37' W 122°31'0 0.0
2017-May-16 16:30N 47°37' W 122°31'0 0.0
2017-May-16 16:00N 47°37' W 122°31'0 0.0
2017-May-16 15:30N 47°37' W 122°31'0 0.0
2017-May-16 14:57N 47°37' W 122°31'0 0.0
2017-May-16 14:30N 47°37' W 122°31'0 0.0
2017-May-16 13:30N 47°37' W 122°31'0 0.0
2017-May-16 13:00N 47°37' W 122°31'0 0.0
2017-May-16 12:30N 47°37' W 122°31'0 0.0
2017-May-16 12:00N 47°37' W 122°31'0 0.0
2017-May-16 11:30N 47°37' W 122°31'0 0.0
2017-May-16 11:00N 47°37' W 122°31'0 0.0
2017-May-16 10:29N 47°37' W 122°31'0 0.0
2017-May-16 09:57N 47°37' W 122°31'0 0.0
2017-May-16 09:30N 47°37' W 122°31'0 0.0
2017-May-16 08:59N 47°37' W 122°31'0 0.0
2017-May-16 08:30N 47°37' W 122°31'0 0.0
2017-May-16 08:00N 47°37' W 122°31'0 0.0
2017-May-16 07:29N 47°37' W 122°31'0 0.0
2017-May-16 06:59N 47°37' W 122°31'0 0.0
2017-May-16 06:29N 47°37' W 122°31'0 0.0
2017-May-16 05:59N 47°37' W 122°31'0 0.0
2017-May-16 05:26N 47°37' W 122°31'0 0.0
2017-May-16 04:59N 47°37' W 122°31'0 0.0
2017-May-16 04:29N 47°37' W 122°31'0 0.0
2017-May-16 04:00N 47°37' W 122°31'0 0.0
2017-May-16 03:29N 47°37' W 122°31'0 0.0
2017-May-16 02:59N 47°37' W 122°31'0 0.0
2017-May-16 02:29N 47°37' W 122°31'0 0.0
2017-May-16 01:59N 47°37' W 122°31'0 0.0
2017-May-16 01:30N 47°37' W 122°31'0 0.0
2017-May-16 01:00N 47°37' W 122°31'0 0.0
2017-May-16 00:29N 47°37' W 122°31'0 0.0
2017-May-15 23:59N 47°37' W 122°31'0 0.0
2017-May-15 23:29N 47°37' W 122°31'0 0.0
2017-May-15 22:59N 47°37' W 122°31'0 0.0
2017-May-15 22:29N 47°37' W 122°31'0 0.0
2017-May-15 22:00N 47°37' W 122°31'0 0.0
2017-May-15 21:29N 47°37' W 122°31'0 0.0
2017-May-15 20:59N 47°37' W 122°31'0 0.0
2017-May-15 20:29N 47°37' W 122°31'0 0.0
2017-May-15 19:59N 47°37' W 122°31'0 0.0
2017-May-15 19:30N 47°37' W 122°31'0 0.0
2017-May-15 18:59N 47°37' W 122°31'0 0.0
2017-May-15 18:29N 47°37' W 122°31'0 0.0
2017-May-15 17:59N 47°37' W 122°31'0 0.0
2017-May-15 17:29N 47°37' W 122°31'0 0.0
2017-May-15 16:59N 47°37' W 122°31'0 0.0
2017-May-15 16:29N 47°37' W 122°31'0 0.0
2017-May-15 15:59N 47°37' W 122°31'0 0.0
2017-May-15 15:29N 47°37' W 122°31'0 0.0
2017-May-15 14:59N 47°37' W 122°31'0 0.0
2017-May-15 13:59N 47°37' W 122°31'0 0.0
2017-May-15 13:29N 47°37' W 122°31'0 0.0
2017-May-15 12:56N 47°37' W 122°31'0 0.0
2017-May-15 12:29N 47°37' W 122°31'0 0.0
2017-May-15 11:59N 47°37' W 122°31'0 0.0
2017-May-15 11:29N 47°37' W 122°31'0 0.0
2017-May-15 10:59N 47°37' W 122°31'0 0.0
2017-May-15 10:29N 47°37' W 122°31'0 0.0
2017-May-15 09:59N 47°37' W 122°31'0 0.0
2017-May-15 09:29N 47°37' W 122°31'0 0.0
2017-May-15 08:59N 47°37' W 122°31'0 0.0
2017-May-15 08:29N 47°37' W 122°31'0 0.0
2017-May-15 07:59N 47°37' W 122°31'0 0.0
2017-May-15 07:29N 47°37' W 122°31'0 0.0
2017-May-15 06:59N 47°37' W 122°31'0 0.0
2017-May-15 06:29N 47°37' W 122°31'0 0.0
2017-May-15 05:59N 47°37' W 122°31'0 0.0
2017-May-15 05:29N 47°37' W 122°31'0 0.0
2017-May-15 04:59N 47°37' W 122°31'0 0.0
2017-May-15 04:29N 47°37' W 122°31'0 0.0
2017-May-15 03:59N 47°37' W 122°31'0 0.0
2017-May-15 03:29N 47°37' W 122°31'0 0.0
2017-May-15 02:59N 47°37' W 122°31'0 0.0
2017-May-15 02:29N 47°37' W 122°31'0 0.0
2017-May-15 01:59N 47°37' W 122°31'0 0.0
2017-May-15 01:29N 47°37' W 122°31'0 0.0
2017-May-15 00:59N 47°37' W 122°31'0 0.0
2017-May-15 00:29N 47°37' W 122°31'0 0.0
2017-May-14 23:59N 47°37' W 122°31'0 0.0
2017-May-14 23:29N 47°37' W 122°31'0 0.0
2017-May-14 22:59N 47°37' W 122°31'0 0.0
2017-May-14 22:29N 47°37' W 122°31'0 0.0
2017-May-14 21:59N 47°37' W 122°31'0 0.0
2017-May-14 21:29N 47°37' W 122°31'0 0.0
2017-May-14 20:59N 47°37' W 122°31'0 0.0
2017-May-14 20:29N 47°37' W 122°31'0 0.0
2017-May-14 19:59N 47°37' W 122°31'0 0.0
2017-May-14 19:29N 47°37' W 122°31'0 0.0
2017-May-14 18:59N 47°37' W 122°31'0 0.0
2017-May-14 18:29N 47°37' W 122°31'0 0.0
2017-May-14 17:59N 47°37' W 122°31'0 0.0
2017-May-14 17:26N 47°37' W 122°31'0 0.0
2017-May-14 16:56N 47°37' W 122°31'0 0.0
2017-May-14 16:29N 47°37' W 122°31'0 0.0
2017-May-14 15:59N 47°37' W 122°31'0 0.0
2017-May-14 15:29N 47°37' W 122°31'0 0.0
2017-May-14 14:59N 47°37' W 122°31'0 0.0
2017-May-14 14:29N 47°37' W 122°31'0 0.0
2017-May-14 13:29N 47°37' W 122°31'0 0.0
2017-May-14 12:59N 47°37' W 122°31'0 0.0
2017-May-14 12:29N 47°37' W 122°31'0 0.0
2017-May-14 11:59N 47°37' W 122°31'0 0.0
2017-May-14 11:29N 47°37' W 122°31'0 0.0
2017-May-14 10:59N 47°37' W 122°31'0 0.0
2017-May-14 10:29N 47°37' W 122°31'0 0.0
2017-May-14 09:59N 47°37' W 122°31'0 0.0
2017-May-14 09:29N 47°37' W 122°31'0 0.0
2017-May-14 08:59N 47°37' W 122°31'0 0.0
2017-May-14 08:29N 47°37' W 122°31'0 0.0
2017-May-14 07:59N 47°37' W 122°31'0 0.0
2017-May-14 07:29N 47°37' W 122°31'0 0.0
2017-May-14 06:59N 47°37' W 122°31'0 0.0
2017-May-14 06:23N 47°37' W 122°31'0 0.0
2017-May-14 05:59N 47°37' W 122°31'0 0.0
2017-May-14 05:26N 47°37' W 122°31'0 0.0
2017-May-14 04:59N 47°37' W 122°31'0 0.0
2017-May-14 04:29N 47°37' W 122°31'0 0.0
2017-May-14 03:59N 47°37' W 122°31'0 0.0
2017-May-14 03:29N 47°37' W 122°31'0 0.0
2017-May-14 02:59N 47°37' W 122°31'0 0.0
2017-May-14 02:29N 47°37' W 122°31'0 0.0
2017-May-14 01:59N 47°37' W 122°31'0 0.0
2017-May-14 01:29N 47°37' W 122°31'0 0.0
2017-May-14 00:59N 47°37' W 122°31'0 0.0
2017-May-14 00:29N 47°37' W 122°31'0 0.0
2017-May-13 23:59N 47°37' W 122°31'0 0.0
2017-May-13 23:29N 47°37' W 122°31'0 0.0
2017-May-13 22:59N 47°37' W 122°31'0 0.0
2017-May-13 22:29N 47°37' W 122°31'0 0.0
2017-May-13 21:59N 47°37' W 122°31'0 0.0
2017-May-13 21:29N 47°37' W 122°31'0 0.0
2017-May-13 20:59N 47°37' W 122°31'0 0.0
2017-May-13 20:29N 47°37' W 122°31'0 0.0
2017-May-13 19:59N 47°37' W 122°31'0 0.0
2017-May-13 19:29N 47°37' W 122°31'0 0.0
2017-May-13 18:59N 47°37' W 122°31'0 0.0
2017-May-13 18:29N 47°37' W 122°31'0 0.0
2017-May-13 17:59N 47°37' W 122°31'0 0.0
2017-May-13 17:29N 47°37' W 122°31'0 0.0
2017-May-13 16:59N 47°37' W 122°31'0 0.0
2017-May-13 16:29N 47°37' W 122°31'0 0.0
2017-May-13 15:59N 47°37' W 122°31'0 0.0
2017-May-13 15:29N 47°37' W 122°31'0 0.0
2017-May-13 14:59N 47°37' W 122°31'0 0.0
2017-May-13 14:29N 47°37' W 122°31'0 0.0
2017-May-13 13:29N 47°37' W 122°31'0 0.0
2017-May-13 12:59N 47°37' W 122°31'0 0.0
2017-May-13 12:29N 47°37' W 122°31'0 0.0
2017-May-13 11:59N 47°37' W 122°31'0 0.0
2017-May-13 11:29N 47°37' W 122°31'0 0.0
2017-May-13 10:59N 47°37' W 122°31'0 0.0
2017-May-13 10:29N 47°37' W 122°31'0 0.0
2017-May-13 09:59N 47°37' W 122°31'0 0.0
2017-May-13 09:29N 47°37' W 122°31'0 0.0
2017-May-13 08:59N 47°37' W 122°31'0 0.0
2017-May-13 08:29N 47°37' W 122°31'0 0.0
2017-May-13 07:59N 47°37' W 122°31'0 0.0
2017-May-13 07:26N 47°37' W 122°31'0 0.0
2017-May-13 06:59N 47°37' W 122°31'0 0.0
2017-May-13 06:29N 47°37' W 122°31'0 0.0
2017-May-13 05:59N 47°37' W 122°31'0 0.0
2017-May-13 05:29N 47°37' W 122°31'0 0.0
2017-May-13 04:59N 47°37' W 122°31'0 0.0
2017-May-13 04:29N 47°37' W 122°31'0 0.0
2017-May-13 03:59N 47°37' W 122°31'0 0.0
2017-May-13 03:29N 47°37' W 122°31'0 0.0
2017-May-13 02:59N 47°37' W 122°31'0 0.0
2017-May-13 02:30N 47°37' W 122°31'0 0.0
2017-May-13 02:00N 47°37' W 122°31'0 0.0
2017-May-13 01:29N 47°37' W 122°31'0 0.0
2017-May-13 01:00N 47°37' W 122°31'0 0.0
2017-May-13 00:30N 47°37' W 122°31'0 0.0
2017-May-12 23:59N 47°37' W 122°31'0 0.0
2017-May-12 23:30N 47°37' W 122°31'0 0.0
2017-May-12 23:00N 47°37' W 122°31'0 0.0
2017-May-12 22:29N 47°37' W 122°31'0 0.0
2017-May-12 22:00N 47°37' W 122°31'0 0.0
2017-May-12 21:30N 47°37' W 122°31'  
Track history (hours):
 
Tides and Currents Weather Stations Pressure Air Temp Water Temp Dewpoint Dewpoint Depression Visibility Wind Speed Wind Dir Waves Ship Positions

SSS Odyssey

Ship's website: http://www.sssodyssey.org

Owner: Pacific Harbors Council, BSA, TACOMA, WA. More information available from US FCC via Universal Licensing System and Coast Guard Vessel Documentation Center.

Last reported at 2017-May-22 21:24 UTC. Time now 2017-May-23 04:55 UTC.
Position N 47°15' W 122°26'.

Length 30 m; draft 4 m.

Type: Ship. MMSI: 367404790.

Date/timePositionNaut miles runAvg speedWind from/ knotsBaromVisibWave heightAir tempDewpointWater temp
2017-May-22 21:24N 47°15' W 122°26'0 0.0
2017-May-22 20:24N 47°15' W 122°26'0 0.0
2017-May-22 19:51N 47°15' W 122°26'0 0.0
2017-May-22 12:51N 47°15' W 122°26'0 0.0
2017-May-22 08:23N 47°15' W 122°26'0 0.0
2017-May-22 07:59N 47°15' W 122°26'0 0.0
2017-May-22 07:17N 47°15' W 122°26'0 0.0
2017-May-22 06:59N 47°15' W 122°26'0 0.0
2017-May-22 06:29N 47°15' W 122°26'0 0.0
2017-May-22 05:56N 47°15' W 122°26'0 0.0
2017-May-22 05:29N 47°15' W 122°26'0 0.0
2017-May-22 05:00N 47°15' W 122°26'0 0.0
2017-May-22 04:29N 47°15' W 122°26'0 0.0
2017-May-22 03:57N 47°15' W 122°26'0 0.0
2017-May-22 03:29N 47°15' W 122°26'0 0.0
2017-May-22 02:59N 47°15' W 122°26'0 0.0
2017-May-22 02:29N 47°15' W 122°26'0 0.0
2017-May-22 01:59N 47°15' W 122°26'0 0.0
2017-May-22 01:23N 47°15' W 122°26'0 0.1
2017-May-22 00:59N 47°15' W 122°26'0 0.1
2017-May-22 00:29N 47°15' W 122°26'0 0.0
2017-May-21 23:53N 47°15' W 122°26'0 0.0
2017-May-21 23:26N 47°15' W 122°26'0 0.5
2017-May-21 22:59N 47°16' W 122°26'2 3.3
2017-May-21 22:30N 47°17' W 122°26'3 5.9
2017-May-21 22:00N 47°20' W 122°29'2 3.9
2017-May-21 21:30N 47°18' W 122°28'2 3.4
2017-May-21 21:00N 47°17' W 122°26'1 2.1
2017-May-21 20:29N 47°15' W 122°26'0 0.3
2017-May-21 19:58N 47°15' W 122°26'0 0.0
2017-May-21 19:28N 47°15' W 122°26'0 0.0
2017-May-21 19:00N 47°15' W 122°26'2 5.0
2017-May-21 18:30N 47°18' W 122°28'1 1.6
2017-May-21 18:00N 47°18' W 122°27'1 2.1
2017-May-21 17:30N 47°17' W 122°27'1 2.2
2017-May-21 17:00N 47°16' W 122°27'1 2.0
2017-May-21 16:27N 47°15' W 122°26'0 0.0
2017-May-21 15:57N 47°15' W 122°26'0 0.0
2017-May-21 15:27N 47°15' W 122°26'0 0.0
2017-May-21 14:57N 47°15' W 122°26'0 0.0
2017-May-21 14:18N 47°15' W 122°26'0 0.0
2017-May-21 13:30N 47°15' W 122°26'0 0.0
2017-May-21 13:00N 47°15' W 122°26'0 0.0
2017-May-21 12:18N 47°15' W 122°26'0 0.0
2017-May-21 11:57N 47°15' W 122°26'0 0.0
2017-May-21 11:27N 47°15' W 122°26'0 0.0
2017-May-21 11:00N 47°15' W 122°26'0 0.0
2017-May-21 10:27N 47°15' W 122°26'0 0.0
2017-May-21 09:57N 47°15' W 122°26'0 0.0
2017-May-21 09:27N 47°15' W 122°26'0 0.0
2017-May-21 08:57N 47°15' W 122°26'0 0.0
2017-May-21 08:30N 47°15' W 122°26'0 0.0
2017-May-21 07:45N 47°15' W 122°26'0 0.0
2017-May-21 07:30N 47°15' W 122°26'0 0.0
2017-May-21 06:51N 47°15' W 122°26'0 0.0
2017-May-21 06:30N 47°15' W 122°26'0 0.0
2017-May-21 05:57N 47°15' W 122°26'0 0.0
2017-May-21 05:30N 47°15' W 122°26'0 0.0
2017-May-21 05:00N 47°15' W 122°26'0 0.0
2017-May-21 04:30N 47°15' W 122°26'0 0.0
2017-May-21 04:00N 47°15' W 122°26'0 0.0
2017-May-21 03:27N 47°15' W 122°26'0 0.0
2017-May-21 03:00N 47°15' W 122°26'0 0.0
2017-May-21 02:30N 47°15' W 122°26'0 0.0
2017-May-21 02:00N 47°15' W 122°26'0 0.0
2017-May-21 01:21N 47°15' W 122°26'0 0.0
2017-May-21 00:57N 47°15' W 122°26'0 0.0
2017-May-21 00:27N 47°15' W 122°26'0 0.0
2017-May-20 23:59N 47°15' W 122°26'1 1.7
2017-May-20 23:30N 47°16' W 122°26'2 4.4
2017-May-20 23:00N 47°18' W 122°28'1 0.9
2017-May-20 22:20N 47°19' W 122°28'0 1.0
2017-May-20 22:00N 47°18' W 122°28'1 1.7
2017-May-20 21:30N 47°18' W 122°27'2 3.7
2017-May-20 21:00N 47°19' W 122°29'1 1.0
2017-May-20 20:30N 47°19' W 122°29'2 3.8
2017-May-20 20:00N 47°20' W 122°32'4 7.3
2017-May-20 19:30N 47°24' W 122°32'2 4.8
2017-May-20 19:00N 47°26' W 122°32'3 6.9
2017-May-20 18:30N 47°29' W 122°30'4 7.5
2017-May-20 18:00N 47°33' W 122°30'4 7.6
2017-May-20 17:30N 47°37' W 122°30'1 1.5
2017-May-20 17:00N 47°37' W 122°31'0 0.0
2017-May-20 16:24N 47°37' W 122°31'0 0.0
2017-May-20 15:54N 47°37' W 122°31'0 0.0
2017-May-20 15:30N 47°37' W 122°31'0 0.0
2017-May-20 15:00N 47°37' W 122°31'0 0.0
2017-May-20 14:00N 47°37' W 122°31'0 0.0
2017-May-20 13:30N 47°37' W 122°31'0 0.0
2017-May-20 12:54N 47°37' W 122°31'0 0.0
2017-May-20 12:27N 47°37' W 122°31'0 0.0
2017-May-20 12:00N 47°37' W 122°31'0 0.0
2017-May-20 11:30N 47°37' W 122°31'0 0.0
2017-May-20 11:00N 47°37' W 122°31'0 0.0
2017-May-20 10:27N 47°37' W 122°31'0 0.0
2017-May-20 10:00N 47°37' W 122°31'0 0.0
2017-May-20 09:30N 47°37' W 122°31'0 0.0
2017-May-20 09:00N 47°37' W 122°31'0 0.0
2017-May-20 08:27N 47°37' W 122°31'0 0.0
2017-May-20 08:00N 47°37' W 122°31'0 0.0
2017-May-20 07:27N 47°37' W 122°31'0 0.0
2017-May-20 07:00N 47°37' W 122°31'0 0.0
2017-May-20 06:30N 47°37' W 122°31'0 0.0
2017-May-20 05:57N 47°37' W 122°31'0 0.0
2017-May-20 05:30N 47°37' W 122°31'0 0.0
2017-May-20 05:00N 47°37' W 122°31'0 0.0
2017-May-20 04:30N 47°37' W 122°31'0 0.0
2017-May-20 04:00N 47°37' W 122°31'0 0.0
2017-May-20 03:30N 47°37' W 122°31'0 0.0
2017-May-20 03:00N 47°37' W 122°31'0 0.0
2017-May-20 02:30N 47°37' W 122°31'0 0.0
2017-May-20 01:48N 47°37' W 122°31'0 0.0
2017-May-20 01:27N 47°37' W 122°31'0 0.0
2017-May-20 01:00N 47°37' W 122°31'0 0.0
2017-May-20 00:30N 47°37' W 122°31'0 0.0
2017-May-20 00:00N 47°37' W 122°31'0 0.0
2017-May-19 23:30N 47°37' W 122°31'0 0.0
2017-May-19 23:00N 47°37' W 122°31'0 0.0
2017-May-19 22:30N 47°37' W 122°31'0 0.0
2017-May-19 22:00N 47°37' W 122°31'0 0.0
2017-May-19 21:30N 47°37' W 122°31'0 0.0
2017-May-19 21:00N 47°37' W 122°31'0 0.0
2017-May-19 20:30N 47°37' W 122°31'0 0.0
2017-May-19 19:57N 47°37' W 122°31'0 0.0
2017-May-19 19:30N 47°37' W 122°31'0 0.0
2017-May-19 19:00N 47°37' W 122°31'0 0.0
2017-May-19 18:30N 47°37' W 122°31'0 0.0
2017-May-19 17:57N 47°37' W 122°31'0 0.0
2017-May-19 17:30N 47°37' W 122°31'0 0.0
2017-May-19 17:00N 47°37' W 122°31'0 0.0
2017-May-19 16:30N 47°37' W 122°31'0 0.0
2017-May-19 15:57N 47°37' W 122°31'0 0.0
2017-May-19 15:27N 47°37' W 122°31'0 0.0
2017-May-19 15:00N 47°37' W 122°31'0 0.0
2017-May-19 14:00N 47°37' W 122°31'0 0.0
2017-May-19 13:30N 47°37' W 122°31'0 0.0
2017-May-19 13:00N 47°37' W 122°31'0 0.0
2017-May-19 12:30N 47°37' W 122°31'0 0.0
2017-May-19 12:00N 47°37' W 122°31'0 0.0
2017-May-19 11:30N 47°37' W 122°31'0 0.0
2017-May-19 11:00N 47°37' W 122°31'0 0.0
2017-May-19 10:30N 47°37' W 122°31'0 0.0
2017-May-19 10:00N 47°37' W 122°31'0 0.0
2017-May-19 09:30N 47°37' W 122°31'0 0.0
2017-May-19 09:00N 47°37' W 122°31'0 0.0
2017-May-19 08:27N 47°37' W 122°31'0 0.0
2017-May-19 08:00N 47°37' W 122°31'0 0.0
2017-May-19 07:30N 47°37' W 122°31'0 0.0
2017-May-19 07:00N 47°37' W 122°31'0 0.0
2017-May-19 06:30N 47°37' W 122°31'0 0.0
2017-May-19 05:57N 47°37' W 122°31'0 0.0
2017-May-19 05:30N 47°37' W 122°31'0 0.0
2017-May-19 04:57N 47°37' W 122°31'0 0.0
2017-May-19 04:30N 47°37' W 122°31'0 0.0
2017-May-19 04:00N 47°37' W 122°31'0 0.0
2017-May-19 03:30N 47°37' W 122°31'0 0.0
2017-May-19 03:00N 47°37' W 122°31'0 0.0
2017-May-19 02:30N 47°37' W 122°31'0 0.0
2017-May-19 02:00N 47°37' W 122°31'0 0.0
2017-May-19 01:30N 47°37' W 122°31'0 0.0
2017-May-19 01:00N 47°37' W 122°31'0 0.0
2017-May-19 00:30N 47°37' W 122°31'0 0.0
2017-May-19 00:00N 47°37' W 122°31'0 0.0
2017-May-18 23:30N 47°37' W 122°31'0 0.0
2017-May-18 23:00N 47°37' W 122°31'0 0.0
2017-May-18 22:30N 47°37' W 122°31'0 0.0
2017-May-18 22:00N 47°37' W 122°31'0 0.0
2017-May-18 21:30N 47°37' W 122°31'0 0.0
2017-May-18 21:00N 47°37' W 122°31'0 0.0
2017-May-18 20:30N 47°37' W 122°31'0 0.0
2017-May-18 20:00N 47°37' W 122°31'0 0.0
2017-May-18 19:30N 47°37' W 122°31'0 0.0
2017-May-18 19:00N 47°37' W 122°31'0 0.0
2017-May-18 18:30N 47°37' W 122°31'0 0.0
2017-May-18 18:00N 47°37' W 122°31'0 0.0
2017-May-18 17:30N 47°37' W 122°31'0 0.0
2017-May-18 17:00N 47°37' W 122°31'0 0.0
2017-May-18 16:30N 47°37' W 122°31'0 0.0
2017-May-18 15:57N 47°37' W 122°31'0 0.0
2017-May-18 15:30N 47°37' W 122°31'0 0.0
2017-May-18 15:00N 47°37' W 122°31'0 0.0
2017-May-18 14:00N 47°37' W 122°31'0 0.0
2017-May-18 13:30N 47°37' W 122°31'0 0.0
2017-May-18 13:00N 47°37' W 122°31'0 0.0
2017-May-18 12:30N 47°37' W 122°31'0 0.0
2017-May-18 12:00N 47°37' W 122°31'0 0.0
2017-May-18 11:30N 47°37' W 122°31'0 0.0
2017-May-18 11:00N 47°37' W 122°31'0 0.0
2017-May-18 10:30N 47°37' W 122°31'0 0.0
2017-May-18 10:00N 47°37' W 122°31'0 0.0
2017-May-18 09:30N 47°37' W 122°31'0 0.0
2017-May-18 09:00N 47°37' W 122°31'0 0.0
2017-May-18 08:30N 47°37' W 122°31'0 0.0
2017-May-18 08:00N 47°37' W 122°31'0 0.0
2017-May-18 07:27N 47°37' W 122°31'0 0.0
2017-May-18 07:00N 47°37' W 122°31'0 0.0
2017-May-18 06:30N 47°37' W 122°31'0 0.0
2017-May-18 06:00N 47°37' W 122°31'0 0.0
2017-May-18 05:30N 47°37' W 122°31'0 0.0
2017-May-18 05:00N 47°37' W 122°31'0 0.0
2017-May-18 04:30N 47°37' W 122°31'0 0.0
2017-May-18 04:00N 47°37' W 122°31'0 0.0
2017-May-18 03:30N 47°37' W 122°31'0 0.0
2017-May-18 03:00N 47°37' W 122°31'0 0.0
2017-May-18 02:30N 47°37' W 122°31'0 0.0
2017-May-18 02:00N 47°37' W 122°31'0 0.0
2017-May-18 01:30N 47°37' W 122°31'0 0.0
2017-May-18 01:00N 47°37' W 122°31'0 0.0
2017-May-18 00:30N 47°37' W 122°31'0 0.0
2017-May-18 00:00N 47°37' W 122°31'0 0.0
2017-May-17 23:30N 47°37' W 122°31'0 0.0
2017-May-17 23:00N 47°37' W 122°31'0 0.0
2017-May-17 22:30N 47°37' W 122°31'0 0.0
2017-May-17 22:00N 47°37' W 122°31'0 0.0
2017-May-17 21:30N 47°37' W 122°31'0 0.0
2017-May-17 21:00N 47°37' W 122°31'0 0.0
2017-May-17 20:30N 47°37' W 122°31'0 0.0
2017-May-17 20:00N 47°37' W 122°31'0 0.0
2017-May-17 19:30N 47°37' W 122°31'0 0.0
2017-May-17 19:00N 47°37' W 122°31'0 0.0
2017-May-17 18:30N 47°37' W 122°31'0 0.0
2017-May-17 18:00N 47°37' W 122°31'0 0.0
2017-May-17 17:30N 47°37' W 122°31'0 0.0
2017-May-17 17:00N 47°37' W 122°31'0 0.0
2017-May-17 16:30N 47°37' W 122°31'0 0.0
2017-May-17 16:00N 47°37' W 122°31'0 0.0
2017-May-17 15:30N 47°37' W 122°31'0 0.0
2017-May-17 15:00N 47°37' W 122°31'0 0.0
2017-May-17 14:00N 47°37' W 122°31'0 0.0
2017-May-17 13:30N 47°37' W 122°31'0 0.0
2017-May-17 13:00N 47°37' W 122°31'0 0.0
2017-May-17 12:30N 47°37' W 122°31'0 0.0
2017-May-17 12:00N 47°37' W 122°31'0 0.0
2017-May-17 11:30N 47°37' W 122°31'0 0.0
2017-May-17 11:00N 47°37' W 122°31'0 0.0
2017-May-17 10:30N 47°37' W 122°31'0 0.0
2017-May-17 09:57N 47°37' W 122°31'0 0.0
2017-May-17 09:30N 47°37' W 122°31'0 0.0
2017-May-17 09:00N 47°37' W 122°31'0 0.0
2017-May-17 08:30N 47°37' W 122°31'0 0.0
2017-May-17 08:00N 47°37' W 122°31'0 0.0
2017-May-17 07:30N 47°37' W 122°31'0 0.0
2017-May-17 07:00N 47°37' W 122°31'0 0.0
2017-May-17 06:30N 47°37' W 122°31'0 0.0
2017-May-17 06:00N 47°37' W 122°31'0 0.0
2017-May-17 05:30N 47°37' W 122°31'0 0.0
2017-May-17 05:00N 47°37' W 122°31'0 0.0
2017-May-17 04:24N 47°37' W 122°31'0 0.0
2017-May-17 03:54N 47°37' W 122°31'0 0.0
2017-May-17 03:30N 47°37' W 122°31'0 0.0
2017-May-17 03:00N 47°37' W 122°31'0 0.0
2017-May-17 02:30N 47°37' W 122°31'0 0.0
2017-May-17 01:57N 47°37' W 122°31'0 0.0
2017-May-17 01:27N 47°37' W 122°31'0 0.0
2017-May-17 01:00N 47°37' W 122°31'0 0.0
2017-May-17 00:30N 47°37' W 122°31'0 0.0
2017-May-17 00:00N 47°37' W 122°31'0 0.0
2017-May-16 23:30N 47°37' W 122°31'0 0.0
2017-May-16 23:00N 47°37' W 122°31'0 0.0
2017-May-16 22:30N 47°37' W 122°31'0 0.0
2017-May-16 22:00N 47°37' W 122°31'0 0.0
2017-May-16 21:30N 47°37' W 122°31'0 0.0
2017-May-16 21:00N 47°37' W 122°31'0 0.0
2017-May-16 20:30N 47°37' W 122°31'0 0.0
2017-May-16 20:00N 47°37' W 122°31'0 0.0
2017-May-16 19:30N 47°37' W 122°31'0 0.0
2017-May-16 19:00N 47°37' W 122°31'0 0.0
2017-May-16 18:30N 47°37' W 122°31'0 0.0
2017-May-16 17:57N 47°37' W 122°31'0 0.0
2017-May-16 17:24N 47°37' W 122°31'0 0.0
2017-May-16 17:00N 47°37' W 122°31'0 0.0
2017-May-16 16:30N 47°37' W 122°31'0 0.0
2017-May-16 16:00N 47°37' W 122°31'0 0.0
2017-May-16 15:30N 47°37' W 122°31'0 0.0
2017-May-16 14:57N 47°37' W 122°31'0 0.0
2017-May-16 14:30N 47°37' W 122°31'0 0.0
2017-May-16 13:30N 47°37' W 122°31'0 0.0
2017-May-16 13:00N 47°37' W 122°31'0 0.0
2017-May-16 12:30N 47°37' W 122°31'0 0.0
2017-May-16 12:00N 47°37' W 122°31'0 0.0
2017-May-16 11:30N 47°37' W 122°31'0 0.0
2017-May-16 11:00N 47°37' W 122°31'0 0.0
2017-May-16 10:29N 47°37' W 122°31'0 0.0
2017-May-16 09:57N 47°37' W 122°31'0 0.0
2017-May-16 09:30N 47°37' W 122°31'0 0.0
2017-May-16 08:59N 47°37' W 122°31'0 0.0
2017-May-16 08:30N 47°37' W 122°31'0 0.0
2017-May-16 08:00N 47°37' W 122°31'0 0.0
2017-May-16 07:29N 47°37' W 122°31'0 0.0
2017-May-16 06:59N 47°37' W 122°31'0 0.0
2017-May-16 06:29N 47°37' W 122°31'0 0.0
2017-May-16 05:59N 47°37' W 122°31'0 0.0
2017-May-16 05:26N 47°37' W 122°31'0 0.0
2017-May-16 04:59N 47°37' W 122°31'0 0.0
2017-May-16 04:29N 47°37' W 122°31'0 0.0
2017-May-16 04:00N 47°37' W 122°31'0 0.0
2017-May-16 03:29N 47°37' W 122°31'0 0.0
2017-May-16 02:59N 47°37' W 122°31'0 0.0
2017-May-16 02:29N 47°37' W 122°31'0 0.0
2017-May-16 01:59N 47°37' W 122°31'0 0.0
2017-May-16 01:30N 47°37' W 122°31'0 0.0
2017-May-16 01:00N 47°37' W 122°31'0 0.0
2017-May-16 00:29N 47°37' W 122°31'0 0.0
2017-May-15 23:59N 47°37' W 122°31'0 0.0
2017-May-15 23:29N 47°37' W 122°31'0 0.0
2017-May-15 22:59N 47°37' W 122°31'0 0.0
2017-May-15 22:29N 47°37' W 122°31'0 0.0
2017-May-15 22:00N 47°37' W 122°31'0 0.0
2017-May-15 21:29N 47°37' W 122°31'0 0.0
2017-May-15 20:59N 47°37' W 122°31'0 0.0
2017-May-15 20:29N 47°37' W 122°31'0 0.0
2017-May-15 19:59N 47°37' W 122°31'0 0.0
2017-May-15 19:30N 47°37' W 122°31'0 0.0
2017-May-15 18:59N 47°37' W 122°31'0 0.0
2017-May-15 18:29N 47°37' W 122°31'0 0.0
2017-May-15 17:59N 47°37' W 122°31'0 0.0
2017-May-15 17:29N 47°37' W 122°31'0 0.0
2017-May-15 16:59N 47°37' W 122°31'0 0.0
2017-May-15 16:29N 47°37' W 122°31'0 0.0
2017-May-15 15:59N 47°37' W 122°31'0 0.0
2017-May-15 15:29N 47°37' W 122°31'0 0.0
2017-May-15 14:59N 47°37' W 122°31'0 0.0
2017-May-15 13:59N 47°37' W 122°31'0 0.0
2017-May-15 13:29N 47°37' W 122°31'0 0.0
2017-May-15 12:56N 47°37' W 122°31'0 0.0
2017-May-15 12:29N 47°37' W 122°31'0 0.0
2017-May-15 11:59N 47°37' W 122°31'0 0.0
2017-May-15 11:29N 47°37' W 122°31'0 0.0
2017-May-15 10:59N 47°37' W 122°31'0 0.0
2017-May-15 10:29N 47°37' W 122°31'0 0.0
2017-May-15 09:59N 47°37' W 122°31'0 0.0
2017-May-15 09:29N 47°37' W 122°31'0 0.0
2017-May-15 08:59N 47°37' W 122°31'0 0.0
2017-May-15 08:29N 47°37' W 122°31'0 0.0
2017-May-15 07:59N 47°37' W 122°31'0 0.0
2017-May-15 07:29N 47°37' W 122°31'0 0.0
2017-May-15 06:59N 47°37' W 122°31'0 0.0
2017-May-15 06:29N 47°37' W 122°31'0 0.0
2017-May-15 05:59N 47°37' W 122°31'0 0.0
2017-May-15 05:29N 47°37' W 122°31'0 0.0
2017-May-15 04:59N 47°37' W 122°31'0 0.0
2017-May-15 04:29N 47°37' W 122°31'0 0.0
2017-May-15 03:59N 47°37' W 122°31'0 0.0
2017-May-15 03:29N 47°37' W 122°31'0 0.0
2017-May-15 02:59N 47°37' W 122°31'0 0.0
2017-May-15 02:29N 47°37' W 122°31'0 0.0
2017-May-15 01:59N 47°37' W 122°31'0 0.0
2017-May-15 01:29N 47°37' W 122°31'0 0.0
2017-May-15 00:59N 47°37' W 122°31'0 0.0
2017-May-15 00:29N 47°37' W 122°31'0 0.0
2017-May-14 23:59N 47°37' W 122°31'0 0.0
2017-May-14 23:29N 47°37' W 122°31'0 0.0
2017-May-14 22:59N 47°37' W 122°31'0 0.0
2017-May-14 22:29N 47°37' W 122°31'0 0.0
2017-May-14 21:59N 47°37' W 122°31'0 0.0
2017-May-14 21:29N 47°37' W 122°31'0 0.0
2017-May-14 20:59N 47°37' W 122°31'0 0.0
2017-May-14 20:29N 47°37' W 122°31'0 0.0
2017-May-14 19:59N 47°37' W 122°31'0 0.0
2017-May-14 19:29N 47°37' W 122°31'0 0.0
2017-May-14 18:59N 47°37' W 122°31'0 0.0
2017-May-14 18:29N 47°37' W 122°31'0 0.0
2017-May-14 17:59N 47°37' W 122°31'0 0.0
2017-May-14 17:26N 47°37' W 122°31'0 0.0
2017-May-14 16:56N 47°37' W 122°31'0 0.0
2017-May-14 16:29N 47°37' W 122°31'0 0.0
2017-May-14 15:59N 47°37' W 122°31'0 0.0
2017-May-14 15:29N 47°37' W 122°31'0 0.0
2017-May-14 14:59N 47°37' W 122°31'0 0.0
2017-May-14 14:29N 47°37' W 122°31'0 0.0
2017-May-14 13:29N 47°37' W 122°31'0 0.0
2017-May-14 12:59N 47°37' W 122°31'0 0.0
2017-May-14 12:29N 47°37' W 122°31'0 0.0
2017-May-14 11:59N 47°37' W 122°31'0 0.0
2017-May-14 11:29N 47°37' W 122°31'0 0.0
2017-May-14 10:59N 47°37' W 122°31'0 0.0
2017-May-14 10:29N 47°37' W 122°31'0 0.0
2017-May-14 09:59N 47°37' W 122°31'0 0.0
2017-May-14 09:29N 47°37' W 122°31'0 0.0
2017-May-14 08:59N 47°37' W 122°31'0 0.0
2017-May-14 08:29N 47°37' W 122°31'0 0.0
2017-May-14 07:59N 47°37' W 122°31'0 0.0
2017-May-14 07:29N 47°37' W 122°31'0 0.0
2017-May-14 06:59N 47°37' W 122°31'0 0.0
2017-May-14 06:23N 47°37' W 122°31'0 0.0
2017-May-14 05:59N 47°37' W 122°31'0 0.0
2017-May-14 05:26N 47°37' W 122°31'0 0.0
2017-May-14 04:59N 47°37' W 122°31'0 0.0
2017-May-14 04:29N 47°37' W 122°31'0 0.0
2017-May-14 03:59N 47°37' W 122°31'0 0.0
2017-May-14 03:29N 47°37' W 122°31'0 0.0
2017-May-14 02:59N 47°37' W 122°31'0 0.0
2017-May-14 02:29N 47°37' W 122°31'0 0.0
2017-May-14 01:59N 47°37' W 122°31'0 0.0
2017-May-14 01:29N 47°37' W 122°31'0 0.0
2017-May-14 00:59N 47°37' W 122°31'0 0.0
2017-May-14 00:29N 47°37' W 122°31'0 0.0
2017-May-13 23:59N 47°37' W 122°31'0 0.0
2017-May-13 23:29N 47°37' W 122°31'0 0.0
2017-May-13 22:59N 47°37' W 122°31'0 0.0
2017-May-13 22:29N 47°37' W 122°31'0 0.0
2017-May-13 21:59N 47°37' W 122°31'0 0.0
2017-May-13 21:29N 47°37' W 122°31'0 0.0
2017-May-13 20:59N 47°37' W 122°31'0 0.0
2017-May-13 20:29N 47°37' W 122°31'0 0.0
2017-May-13 19:59N 47°37' W 122°31'0 0.0
2017-May-13 19:29N 47°37' W 122°31'0 0.0
2017-May-13 18:59N 47°37' W 122°31'0 0.0
2017-May-13 18:29N 47°37' W 122°31'0 0.0
2017-May-13 17:59N 47°37' W 122°31'0 0.0
2017-May-13 17:29N 47°37' W 122°31'0 0.0
2017-May-13 16:59N 47°37' W 122°31'0 0.0
2017-May-13 16:29N 47°37' W 122°31'0 0.0
2017-May-13 15:59N 47°37' W 122°31'0 0.0
2017-May-13 15:29N 47°37' W 122°31'0 0.0
2017-May-13 14:59N 47°37' W 122°31'0 0.0
2017-May-13 14:29N 47°37' W 122°31'0 0.0
2017-May-13 13:29N 47°37' W 122°31'0 0.0
2017-May-13 12:59N 47°37' W 122°31'0 0.0
2017-May-13 12:29N 47°37' W 122°31'0 0.0
2017-May-13 11:59N 47°37' W 122°31'0 0.0
2017-May-13 11:29N 47°37' W 122°31'0 0.0
2017-May-13 10:59N 47°37' W 122°31'0 0.0
2017-May-13 10:29N 47°37' W 122°31'0 0.0
2017-May-13 09:59N 47°37' W 122°31'0 0.0
2017-May-13 09:29N 47°37' W 122°31'0 0.0
2017-May-13 08:59N 47°37' W 122°31'0 0.0
2017-May-13 08:29N 47°37' W 122°31'0 0.0
2017-May-13 07:59N 47°37' W 122°31'0 0.0
2017-May-13 07:26N 47°37' W 122°31'0 0.0
2017-May-13 06:59N 47°37' W 122°31'0 0.0
2017-May-13 06:29N 47°37' W 122°31'0 0.0
2017-May-13 05:59N 47°37' W 122°31'0 0.0
2017-May-13 05:29N 47°37' W 122°31'0 0.0
2017-May-13 04:59N 47°37' W 122°31'0 0.0
2017-May-13 04:29N 47°37' W 122°31'0 0.0
2017-May-13 03:59N 47°37' W 122°31'0 0.0
2017-May-13 03:29N 47°37' W 122°31'0 0.0
2017-May-13 02:59N 47°37' W 122°31'0 0.0
2017-May-13 02:30N 47°37' W 122°31'0 0.0
2017-May-13 02:00N 47°37' W 122°31'0 0.0
2017-May-13 01:29N 47°37' W 122°31'0 0.0
2017-May-13 01:00N 47°37' W 122°31'0 0.0
2017-May-13 00:30N 47°37' W 122°31'0 0.0
2017-May-12 23:59N 47°37' W 122°31'0 0.0
2017-May-12 23:30N 47°37' W 122°31'0 0.0
2017-May-12 23:00N 47°37' W 122°31'0 0.0
2017-May-12 22:29N 47°37' W 122°31'0 0.0
2017-May-12 22:00N 47°37' W 122°31'0 0.0
2017-May-12 21:30N 47°37' W 122°31'  

Dump ship's entire track history